Accueil
METAR-TAF:

METAR-TAF

Aéroports :

Aéroport international du Caire

Le Caire, Égypte

latitude: 30-08N, longitude: 031-24E, altitude: 64 m

Observation

Le bulletin a été fait il y a 16 minutes, à 15:00 UTC
Vent 11 kt de nord-ouest
Température 36°C
Humidité 29%
Pression 1006 hPa
Visibilité 10 km ou plus
pas de nuages en-dessous de 1500 mètres et pas de cumulonimbus.

METAR: HECA 031500Z 32011KT CAVOK 36/15 Q1006 NOSIG

Heure: 17:16 (15:16 UTC)

Prévision

Le bulletin a été fait il y a 4 heures et 16 minutes, à 11:00 UTC
Prévision valable du 03 à 12 UTC au 04 à 18 UTC
Vent 10 kt de ouest/nord-ouest
Visibilité 10 km ou plus
pas de nuages en-dessous de 1500 mètres et pas de cumulonimbus.
Temporairement
du 04 à 00 UTC au 04 à 06 UTC
Vent 3 kt de direction variable

TAF: HECA 031100Z 0312/0418 30010KT CAVOK TEMPO 0400/0406 VRB03KT

Observations et prévisions météorologiques de plus de 4000 aéroports (messages METAR et TAF).

Les stations disponibles sont représentées par des disques jaunes et rouges sur la carte.

Passer la souris dessus pour voir le nom de la station.

Cliquer dessus pour voir les observations et prévisions météorologiques.

Pour changer de carte: cliquez sur les boutons verts avec une croix noire pour zoomer, sur le bouton vert avec un tiret pour effectuer un zoom arrière, ou sur les flèches vertes pour les cartes adjacentes.


METAR-TAF: